Time;durP1;ratioP1;P1;durP2;ratioP2;P2;SDS_P1;SDS_P2;PMS_P1;PMS_P2;Temp;Humidity;BMP_temperature;BMP_pressure;BME280_temperature;BME280_humidity;BME280_pressure;Samples;Min_cycle;Max_cycle;Signal;HPM_P1;HPM_P2
2023/06/11 00:00:23;;;;;;;9.00;6.10;;;17.20;77.00;;;;;;5036217;28;20045;-63
2023/06/11 00:02:54;;;;;;;11.02;6.28;;;17.10;77.00;;;;;;5034921;28;20060;-62
2023/06/11 00:05:20;;;;;;;9.75;6.10;;;17.10;77.00;;;;;;5045427;28;20116;-63
2023/06/11 00:07:48;;;;;;;10.02;6.63;;;17.20;76.70;;;;;;5036056;28;20040;-63
2023/06/11 00:10:15;;;;;;;8.75;6.70;;;17.20;76.30;;;;;;5042914;28;20164;-62
2023/06/11 00:12:40;;;;;;;11.27;7.05;;;17.20;76.20;;;;;;5041991;28;20040;-62
2023/06/11 00:15:07;;;;;;;10.77;7.45;;;17.20;75.80;;;;;;5050124;28;20048;-62
2023/06/11 00:17:33;;;;;;;12.23;7.57;;;17.10;75.60;;;;;;5050840;28;20041;-62
2023/06/11 00:20:03;;;;;;;10.48;7.57;;;17.10;75.50;;;;;;5047756;28;20048;-62
2023/06/11 00:22:31;;;;;;;12.18;7.32;;;17.10;75.40;;;;;;5046063;28;20044;-61
2023/06/11 00:24:57;;;;;;;12.85;7.50;;;17.10;75.20;;;;;;5051277;28;20099;-63
2023/06/11 00:27:22;;;;;;;10.15;6.85;;;17.10;75.10;;;;;;5043522;28;20084;-62
2023/06/11 00:29:48;;;;;;;12.18;7.65;;;17.10;75.00;;;;;;5041342;28;20052;-63
2023/06/11 00:32:14;;;;;;;9.55;7.35;;;17.10;75.00;;;;;;5050229;28;20045;-62
2023/06/11 00:34:40;;;;;;;14.43;7.78;;;17.10;74.90;;;;;;5043336;28;23060;-63
2023/06/11 00:37:05;;;;;;;14.00;8.05;;;17.10;74.50;;;;;;5037572;28;20065;-62
2023/06/11 00:39:31;;;;;;;11.18;7.63;;;17.20;74.10;;;;;;5040414;28;20116;-62
2023/06/11 00:41:57;;;;;;;11.25;8.00;;;17.20;73.70;;;;;;5044216;28;20037;-63
2023/06/11 00:44:23;;;;;;;10.95;8.02;;;17.30;73.30;;;;;;5021784;28;20041;-62
2023/06/11 00:46:51;;;;;;;8.63;7.78;;;17.30;72.80;;;;;;5047570;28;20446;-63
2023/06/11 00:49:17;;;;;;;9.45;7.78;;;17.40;72.20;;;;;;5048434;28;20041;-62
2023/06/11 00:51:45;;;;;;;10.63;7.57;;;17.40;72.00;;;;;;5042352;28;20033;-62
2023/06/11 00:54:12;;;;;;;12.80;8.85;;;17.40;72.00;;;;;;5037834;28;20072;-62
2023/06/11 00:56:41;;;;;;;10.48;8.10;;;17.30;71.90;;;;;;5037743;28;20065;-61
2023/06/11 00:59:07;;;;;;;14.10;8.45;;;17.30;71.90;;;;;;5033271;28;20357;-62
2023/06/11 01:01:36;;;;;;;9.35;8.20;;;17.30;71.80;;;;;;5036443;28;20037;-63
2023/06/11 01:04:05;;;;;;;10.63;8.00;;;17.20;71.80;;;;;;5042349;28;20037;-63
2023/06/11 01:06:33;;;;;;;13.52;8.95;;;17.20;71.70;;;;;;5038361;28;20056;-63
2023/06/11 01:09:00;;;;;;;14.07;8.73;;;17.20;71.60;;;;;;5041685;28;20083;-62
2023/06/11 01:11:27;;;;;;;11.20;8.48;;;17.30;71.20;;;;;;5040672;28;20569;-62
2023/06/11 01:13:54;;;;;;;8.70;7.75;;;17.30;71.00;;;;;;5037981;28;20140;-62
2023/06/11 01:16:37;;;;;;;12.05;8.10;;;17.20;70.90;;;;;;5040355;28;20116;-63
2023/06/11 01:19:29;;;;;;;9.35;8.35;;;17.20;70.90;;;;;;5034376;28;20048;-64
2023/06/11 01:22:00;;;;;;;10.43;8.18;;;17.20;70.90;;;;;;5045502;28;20125;-64
2023/06/11 01:24:44;;;;;;;14.20;8.23;;;17.20;70.80;;;;;;5034334;28;20037;-62
2023/06/11 01:27:43;;;;;;;11.07;8.35;;;17.20;70.80;;;;;;5042786;28;20213;-65
2023/06/11 01:30:17;;;;;;;10.70;8.20;;;17.10;71.10;;;;;;5032626;28;20043;-62
2023/06/11 01:32:45;;;;;;;11.48;7.80;;;17.10;71.10;;;;;;5050028;28;20471;-63
2023/06/11 01:35:12;;;;;;;14.05;8.65;;;17.00;71.10;;;;;;5041311;28;20080;-63
2023/06/11 01:37:38;;;;;;;10.07;8.70;;;16.90;71.30;;;;;;5039217;28;20052;-63
2023/06/11 01:40:05;;;;;;;10.15;8.25;;;16.80;71.50;;;;;;5038133;28;20055;-62
2023/06/11 01:42:30;;;;;;;13.75;8.85;;;16.80;71.70;;;;;;5038378;28;20037;-62
2023/06/11 01:44:56;;;;;;;10.55;9.43;;;16.70;72.00;;;;;;5020182;28;20122;-62
2023/06/11 01:47:22;;;;;;;9.20;8.10;;;16.60;72.10;;;;;;5042579;28;20423;-62
2023/06/11 01:49:47;;;;;;;13.85;8.50;;;16.60;72.30;;;;;;5041410;28;20278;-62
2023/06/11 01:52:13;;;;;;;12.25;8.70;;;16.50;72.30;;;;;;5039383;28;20034;-63
2023/06/11 01:54:38;;;;;;;10.32;8.32;;;16.50;72.40;;;;;;5027717;28;20190;-62
2023/06/11 01:57:04;;;;;;;11.60;8.75;;;16.40;72.50;;;;;;5056028;28;20525;-63
2023/06/11 01:59:30;;;;;;;10.75;8.45;;;16.40;72.70;;;;;;5044823;28;20045;-62
2023/06/11 02:01:56;;;;;;;10.50;9.02;;;16.40;72.90;;;;;;5041246;28;20033;-65
2023/06/11 02:04:22;;;;;;;11.70;9.23;;;16.30;72.90;;;;;;5032662;28;20112;-63
2023/06/11 02:06:51;;;;;;;11.63;9.90;;;16.20;73.00;;;;;;5036838;28;20038;-61
2023/06/11 02:09:16;;;;;;;13.70;9.18;;;16.20;73.00;;;;;;5039006;28;20079;-61
2023/06/11 02:11:42;;;;;;;13.02;10.20;;;16.20;73.10;;;;;;5041896;28;20072;-61
2023/06/11 02:14:07;;;;;;;11.35;9.55;;;16.20;73.20;;;;;;5034821;28;20425;-61
2023/06/11 02:16:33;;;;;;;11.88;8.88;;;16.10;73.30;;;;;;5030819;28;20048;-61
2023/06/11 02:18:58;;;;;;;10.75;9.32;;;16.10;73.50;;;;;;5031614;28;20029;-61
2023/06/11 02:21:24;;;;;;;13.43;9.27;;;16.10;73.50;;;;;;5042431;28;20033;-61
2023/06/11 02:23:49;;;;;;;10.63;9.38;;;16.10;73.50;;;;;;5040495;28;20034;-61
2023/06/11 02:26:15;;;;;;;12.82;8.77;;;16.10;73.60;;;;;;5046035;28;20041;-63
2023/06/11 02:28:41;;;;;;;11.43;9.43;;;16.00;73.60;;;;;;5041643;28;20037;-63
2023/06/11 02:31:06;;;;;;;11.20;9.70;;;15.90;73.70;;;;;;5044785;28;20453;-64
2023/06/11 02:33:32;;;;;;;11.45;9.35;;;15.90;74.00;;;;;;5043885;28;20127;-64
2023/06/11 02:35:57;;;;;;;15.45;10.00;;;15.90;74.00;;;;;;5042778;28;20045;-63
2023/06/11 02:38:23;;;;;;;12.95;9.55;;;15.90;74.10;;;;;;5038052;28;20049;-63
2023/06/11 02:40:48;;;;;;;10.95;9.05;;;15.90;74.10;;;;;;5043766;28;20025;-64
2023/06/11 02:43:14;;;;;;;12.48;9.70;;;15.90;74.10;;;;;;5036298;28;20041;-64
2023/06/11 02:45:39;;;;;;;15.85;9.52;;;15.90;74.10;;;;;;5040489;28;20044;-63
2023/06/11 02:48:05;;;;;;;9.55;8.50;;;15.90;74.20;;;;;;5044401;28;20069;-63
2023/06/11 02:50:31;;;;;;;14.00;10.82;;;15.90;74.10;;;;;;5036978;28;20041;-66
2023/06/11 02:52:56;;;;;;;12.43;9.63;;;15.90;74.10;;;;;;5036591;28;20361;-64
2023/06/11 02:55:22;;;;;;;11.80;9.38;;;15.90;74.00;;;;;;5032284;28;20389;-63
2023/06/11 02:57:47;;;;;;;10.63;9.45;;;15.90;74.00;;;;;;5027834;28;20090;-63
2023/06/11 03:00:13;;;;;;;11.75;10.32;;;15.80;73.80;;;;;;5040201;28;20195;-64
2023/06/11 03:02:39;;;;;;;12.88;10.68;;;15.90;73.90;;;;;;5038778;28;20033;-63
2023/06/11 03:05:05;;;;;;;12.00;8.68;;;15.90;73.80;;;;;;5026441;28;20160;-64
2023/06/11 03:07:30;;;;;;;12.40;9.90;;;15.80;74.00;;;;;;5029220;28;20472;-64
2023/06/11 03:09:56;;;;;;;11.90;10.13;;;15.80;74.00;;;;;;5043798;28;20132;-65
2023/06/11 03:12:21;;;;;;;12.60;10.25;;;15.80;74.10;;;;;;5042988;28;20074;-64
2023/06/11 03:14:47;;;;;;;12.20;9.95;;;15.80;74.20;;;;;;5019227;28;20196;-64
2023/06/11 03:17:12;;;;;;;11.75;9.48;;;15.80;74.30;;;;;;5043144;28;20041;-63
2023/06/11 03:19:38;;;;;;;11.90;10.45;;;15.80;74.30;;;;;;5036241;28;20113;-63
2023/06/11 03:22:04;;;;;;;11.90;9.75;;;15.80;74.50;;;;;;5029690;28;20092;-65
2023/06/11 03:24:29;;;;;;;12.35;10.13;;;15.80;74.50;;;;;;5047204;28;20083;-64
2023/06/11 03:26:55;;;;;;;15.32;10.57;;;15.70;74.50;;;;;;5035856;28;20067;-63
2023/06/11 03:29:20;;;;;;;13.45;10.45;;;15.70;74.60;;;;;;5038564;28;20345;-64
2023/06/11 03:31:46;;;;;;;12.82;10.23;;;15.70;74.80;;;;;;5037922;28;20371;-61
2023/06/11 03:34:11;;;;;;;14.73;10.10;;;15.70;74.70;;;;;;5042750;28;20037;-62
2023/06/11 03:36:37;;;;;;;11.27;9.85;;;15.70;74.80;;;;;;5038193;28;20479;-60
2023/06/11 03:39:03;;;;;;;14.13;9.98;;;15.70;74.90;;;;;;5033091;28;20038;-61
2023/06/11 03:41:28;;;;;;;12.25;10.23;;;15.70;75.00;;;;;;5014921;28;20453;-61
2023/06/11 03:43:54;;;;;;;16.48;11.13;;;15.70;75.10;;;;;;5017706;28;20056;-61
2023/06/11 03:46:21;;;;;;;14.63;10.88;;;15.70;75.10;;;;;;5033058;28;20048;-65
2023/06/11 03:48:47;;;;;;;12.93;10.15;;;15.70;75.20;;;;;;5030550;28;20090;-63
2023/06/11 03:51:14;;;;;;;15.73;10.00;;;15.70;75.30;;;;;;5018078;28;20137;-65
2023/06/11 03:53:39;;;;;;;13.30;11.18;;;15.70;75.40;;;;;;5032307;28;20376;-63
2023/06/11 03:56:05;;;;;;;10.18;9.00;;;15.70;75.50;;;;;;5033003;28;20049;-64
2023/06/11 03:58:30;;;;;;;14.32;10.48;;;15.80;75.60;;;;;;5033492;28;20064;-64
2023/06/11 04:00:56;;;;;;;15.57;11.00;;;15.80;75.40;;;;;;5043058;28;20461;-64
2023/06/11 04:03:22;;;;;;;13.10;10.55;;;15.80;75.50;;;;;;5039293;28;20390;-64
2023/06/11 04:05:47;;;;;;;11.85;10.32;;;15.80;75.60;;;;;;5041618;28;20041;-63
2023/06/11 04:08:13;;;;;;;12.98;11.15;;;15.80;75.60;;;;;;5044621;28;20128;-64
2023/06/11 04:10:38;;;;;;;13.80;11.50;;;15.80;75.60;;;;;;5046700;28;20049;-62
2023/06/11 04:13:04;;;;;;;15.57;11.73;;;15.90;75.70;;;;;;5044116;28;20041;-64
2023/06/11 04:15:30;;;;;;;13.57;11.73;;;15.90;75.70;;;;;;5043092;28;20077;-64
2023/06/11 04:17:56;;;;;;;15.70;11.18;;;16.00;75.70;;;;;;5045905;28;20045;-64
2023/06/11 04:20:21;;;;;;;12.65;10.40;;;16.00;75.70;;;;;;5045441;28;20032;-64
2023/06/11 04:22:47;;;;;;;15.55;10.85;;;16.10;75.70;;;;;;5035367;28;20082;-65
2023/06/11 04:25:13;;;;;;;13.63;11.68;;;16.10;75.70;;;;;;5044784;28;20079;-64
2023/06/11 04:27:38;;;;;;;14.15;11.73;;;16.20;75.70;;;;;;5031424;28;20067;-65
2023/06/11 04:30:06;;;;;;;13.57;11.07;;;16.20;75.60;;;;;;5023536;28;20055;-64
2023/06/11 04:32:34;;;;;;;17.65;12.52;;;16.20;75.70;;;;;;5038247;28;20037;-66
2023/06/11 04:35:02;;;;;;;13.07;11.65;;;16.30;75.80;;;;;;5046897;28;20080;-64
2023/06/11 04:37:29;;;;;;;13.85;11.77;;;16.40;75.80;;;;;;5039670;28;20041;-63
2023/06/11 04:39:56;;;;;;;18.27;11.45;;;16.50;75.90;;;;;;5040782;28;20385;-65
2023/06/11 04:42:24;;;;;;;15.35;11.30;;;16.60;75.90;;;;;;5040104;28;20075;-63
2023/06/11 04:44:50;;;;;;;16.15;12.48;;;16.60;75.80;;;;;;5034538;28;20164;-64
2023/06/11 04:47:16;;;;;;;17.52;11.82;;;16.80;75.80;;;;;;5041641;28;20140;-64
2023/06/11 04:49:43;;;;;;;14.85;12.00;;;16.80;75.80;;;;;;5038015;28;20250;-64
2023/06/11 04:52:09;;;;;;;13.55;12.05;;;17.00;76.10;;;;;;5029501;28;20061;-64
2023/06/11 04:54:35;;;;;;;14.32;11.70;;;17.10;76.00;;;;;;5044297;28;20065;-65
2023/06/11 04:57:00;;;;;;;12.88;11.48;;;17.20;75.70;;;;;;5034112;28;20092;-64
2023/06/11 04:59:26;;;;;;;19.08;11.73;;;17.40;75.50;;;;;;5034804;28;20037;-64
2023/06/11 05:01:53;;;;;;;13.93;11.98;;;17.40;75.20;;;;;;5038368;28;20168;-66
2023/06/11 05:04:19;;;;;;;16.85;11.45;;;17.60;75.40;;;;;;5035820;28;20083;-64
2023/06/11 05:06:46;;;;;;;14.43;11.80;;;17.70;76.10;;;;;;5044276;28;20488;-63
2023/06/11 05:09:13;;;;;;;14.70;11.80;;;17.90;75.40;;;;;;5037382;28;20622;-64
2023/06/11 05:11:43;;;;;;;14.38;11.32;;;18.00;75.40;;;;;;5017528;28;20143;-61
2023/06/11 05:14:09;;;;;;;14.30;11.57;;;18.20;75.20;;;;;;5033967;28;20059;-64
2023/06/11 05:16:35;;;;;;;16.25;12.13;;;18.40;75.10;;;;;;5035679;28;20151;-63
2023/06/11 05:19:02;;;;;;;14.50;11.52;;;18.50;74.50;;;;;;5036780;28;20045;-61
2023/06/11 05:21:28;;;;;;;13.15;10.98;;;18.70;74.00;;;;;;5036910;28;20073;-61
2023/06/11 05:23:54;;;;;;;13.73;12.00;;;18.90;73.50;;;;;;5039265;28;20056;-62
2023/06/11 05:26:35;;;;;;;15.60;11.93;;;19.00;73.30;;;;;;5031169;28;20481;-61
2023/06/11 05:29:02;;;;;;;13.75;11.63;;;19.20;72.60;;;;;;5041213;28;20127;-64
2023/06/11 05:31:29;;;;;;;15.55;11.50;;;19.30;72.70;;;;;;5038524;28;20041;-64
2023/06/11 05:33:55;;;;;;;13.65;10.80;;;19.50;72.20;;;;;;5036781;28;20049;-62
2023/06/11 05:36:22;;;;;;;14.27;11.07;;;19.60;71.80;;;;;;5037779;28;20033;-63
2023/06/11 05:38:48;;;;;;;12.85;10.73;;;19.80;71.30;;;;;;5036827;28;20040;-62
2023/06/11 05:41:14;;;;;;;11.93;10.65;;;19.90;70.70;;;;;;5036940;28;20143;-62
2023/06/11 05:43:40;;;;;;;11.65;10.30;;;20.10;70.10;;;;;;5044497;28;20041;-61
2023/06/11 05:46:06;;;;;;;11.38;10.18;;;20.20;69.60;;;;;;5032871;28;20342;-61
2023/06/11 05:48:31;;;;;;;15.98;10.88;;;20.30;69.30;;;;;;5047132;28;20181;-61
2023/06/11 05:50:57;;;;;;;11.57;10.20;;;20.50;68.30;;;;;;5021952;28;20049;-62
2023/06/11 05:53:22;;;;;;;13.48;10.27;;;20.60;68.40;;;;;;5037643;28;20167;-62
2023/06/11 05:55:48;;;;;;;12.90;10.27;;;20.70;68.00;;;;;;5040559;28;20049;-62
2023/06/11 05:58:13;;;;;;;11.50;10.30;;;20.80;67.20;;;;;;5039832;28;20071;-61
2023/06/11 06:00:42;;;;;;;14.75;10.98;;;20.90;66.50;;;;;;5041453;28;20048;-62
2023/06/11 06:03:08;;;;;;;13.52;10.88;;;21.10;66.00;;;;;;5042421;28;20048;-61
2023/06/11 06:05:34;;;;;;;14.10;10.25;;;21.20;65.80;;;;;;5047061;28;20041;-62
2023/06/11 06:07:59;;;;;;;11.80;9.75;;;21.30;65.10;;;;;;5045084;28;20163;-63
2023/06/11 06:10:25;;;;;;;12.25;9.35;;;21.40;63.60;;;;;;5017062;28;20048;-61
2023/06/11 06:12:50;;;;;;;12.40;9.63;;;21.40;63.60;;;;;;5047595;28;20406;-62
2023/06/11 06:15:16;;;;;;;12.43;9.90;;;21.60;63.30;;;;;;5036737;28;20064;-61
2023/06/11 06:17:42;;;;;;;10.90;9.77;;;21.70;62.60;;;;;;5028546;28;20044;-66
2023/06/11 06:20:09;;;;;;;12.30;10.00;;;21.90;62.10;;;;;;5021111;28;20041;-62
2023/06/11 06:22:34;;;;;;;14.13;10.77;;;22.00;62.00;;;;;;5040868;28;20033;-63
2023/06/11 06:25:00;;;;;;;11.25;9.82;;;22.10;61.20;;;;;;5044412;28;20045;-63
2023/06/11 06:27:25;;;;;;;14.25;10.30;;;22.20;61.10;;;;;;5038604;28;20084;-62
2023/06/11 06:29:51;;;;;;;12.18;9.77;;;22.30;60.60;;;;;;5047878;28;20056;-62
2023/06/11 06:32:17;;;;;;;10.68;9.57;;;22.40;60.40;;;;;;5038474;28;20041;-62
2023/06/11 06:34:42;;;;;;;11.98;10.18;;;22.60;59.90;;;;;;5039570;28;20486;-62
2023/06/11 06:37:09;;;;;;;11.18;9.55;;;22.70;59.50;;;;;;5037625;28;20048;-64
2023/06/11 06:39:34;;;;;;;12.07;9.93;;;22.70;59.20;;;;;;5027415;28;20029;-62
2023/06/11 06:42:00;;;;;;;11.77;9.75;;;22.80;58.80;;;;;;5031788;28;20060;-62
2023/06/11 06:44:25;;;;;;;10.68;9.35;;;22.90;58.10;;;;;;5055726;28;20438;-62
2023/06/11 06:46:53;;;;;;;11.98;9.15;;;23.10;57.90;;;;;;5033082;28;20703;-63
2023/06/11 06:49:20;;;;;;;10.85;9.50;;;23.40;57.70;;;;;;5043165;28;20053;-63
2023/06/11 06:51:46;;;;;;;10.75;9.02;;;23.50;56.80;;;;;;5045020;28;20087;-64
2023/06/11 06:54:11;;;;;;;10.23;9.15;;;23.80;56.40;;;;;;5032512;28;20452;-62
2023/06/11 06:56:37;;;;;;;11.60;9.07;;;24.00;55.80;;;;;;5032768;28;20469;-63
2023/06/11 06:59:02;;;;;;;13.13;9.73;;;24.10;54.70;;;;;;5036095;28;20120;-63
2023/06/11 07:01:28;;;;;;;9.30;8.23;;;24.30;54.40;;;;;;5039117;28;20040;-64
2023/06/11 07:03:54;;;;;;;11.00;8.50;;;24.40;54.30;;;;;;5025284;28;20514;-62
2023/06/11 07:06:19;;;;;;;9.60;8.50;;;24.60;54.20;;;;;;5041027;28;20041;-65
2023/06/11 07:08:45;;;;;;;9.82;8.32;;;24.60;53.30;;;;;;5036511;28;20041;-64
2023/06/11 07:11:10;;;;;;;9.90;8.70;;;24.70;52.90;;;;;;5034128;28;20036;-64
2023/06/11 07:13:36;;;;;;;8.85;7.90;;;24.80;52.20;;;;;;5018898;28;20055;-65
2023/06/11 07:16:02;;;;;;;9.88;8.15;;;25.00;51.60;;;;;;5030455;28;20549;-62
2023/06/11 07:18:28;;;;;;;9.02;7.80;;;25.10;51.10;;;;;;5032347;28;20035;-64
2023/06/11 07:20:53;;;;;;;9.98;8.27;;;25.30;50.70;;;;;;5032912;28;20037;-63
2023/06/11 07:23:19;;;;;;;10.88;8.52;;;25.40;50.40;;;;;;5036241;28;20041;-62
2023/06/11 07:25:45;;;;;;;10.32;8.65;;;25.50;49.90;;;;;;5038857;28;20511;-65
2023/06/11 07:28:11;;;;;;;9.35;8.40;;;25.70;49.60;;;;;;5033622;28;20442;-65
2023/06/11 07:30:37;;;;;;;8.85;7.93;;;25.60;49.40;;;;;;5036393;28;20081;-64
2023/06/11 07:33:02;;;;;;;11.65;8.57;;;25.80;49.50;;;;;;5034764;28;22675;-64
2023/06/11 07:35:28;;;;;;;11.45;8.88;;;25.90;49.40;;;;;;5031870;28;20041;-66
2023/06/11 07:37:54;;;;;;;10.98;8.50;;;26.30;49.00;;;;;;5034039;28;20072;-64
2023/06/11 07:40:20;;;;;;;8.18;7.45;;;26.20;47.70;;;;;;5032733;28;20057;-63
2023/06/11 07:42:47;;;;;;;11.88;8.95;;;26.50;47.20;;;;;;5033011;28;20034;-63
2023/06/11 07:45:13;;;;;;;9.52;8.00;;;26.40;46.80;;;;;;5040200;28;20058;-64
2023/06/11 07:47:40;;;;;;;10.30;7.82;;;26.60;46.40;;;;;;5031161;28;20056;-63
2023/06/11 07:50:06;;;;;;;10.82;8.27;;;26.70;46.00;;;;;;5036588;28;20124;-63
2023/06/11 07:52:32;;;;;;;9.50;8.50;;;26.70;45.70;;;;;;5038780;28;20501;-63
2023/06/11 07:54:57;;;;;;;9.25;8.35;;;26.80;45.20;;;;;;5034912;28;20084;-64
2023/06/11 07:57:23;;;;;;;9.30;7.68;;;27.00;45.20;;;;;;5041452;28;20063;-63
2023/06/11 07:59:49;;;;;;;8.68;7.47;;;27.10;45.10;;;;;;5036068;28;20455;-65
2023/06/11 08:02:14;;;;;;;8.40;7.60;;;27.30;44.60;;;;;;5039489;28;20148;-64
2023/06/11 08:04:40;;;;;;;10.35;8.38;;;27.40;44.10;;;;;;5036852;28;20037;-64
2023/06/11 08:07:06;;;;;;;8.68;7.78;;;27.60;43.80;;;;;;5044992;28;20084;-64
2023/06/11 08:09:36;;;;;;;9.90;7.88;;;28.00;43.60;;;;;;5035186;28;20071;-62
2023/06/11 08:12:03;;;;;;;11.20;8.48;;;28.00;44.10;;;;;;5034931;28;20044;-63
2023/06/11 08:14:29;;;;;;;7.95;7.28;;;28.10;42.40;;;;;;5049635;28;20049;-64
2023/06/11 08:16:54;;;;;;;8.35;7.55;;;28.20;42.10;;;;;;5046957;28;20425;-62
2023/06/11 08:19:20;;;;;;;8.15;7.40;;;28.50;42.00;;;;;;5047844;28;20040;-61
2023/06/11 08:21:47;;;;;;;8.48;7.22;;;28.80;41.70;;;;;;5037258;28;20040;-64
2023/06/11 08:24:13;;;;;;;8.48;7.57;;;29.00;41.10;;;;;;5030186;28;20037;-62
2023/06/11 08:26:38;;;;;;;8.75;7.80;;;29.30;40.70;;;;;;5028500;28;20045;-64
2023/06/11 08:29:04;;;;;;;9.93;7.97;;;29.50;40.30;;;;;;5040514;28;20551;-64
2023/06/11 08:31:30;;;;;;;8.60;7.78;;;29.60;39.70;;;;;;5038987;28;20048;-63
2023/06/11 08:33:55;;;;;;;10.05;7.43;;;29.40;39.50;;;;;;5033877;28;20033;-64
2023/06/11 08:36:21;;;;;;;9.18;7.63;;;29.60;39.50;;;;;;5041770;28;20044;-68
2023/06/11 08:38:47;;;;;;;8.13;7.32;;;29.80;39.40;;;;;;5041438;28;20056;-63
2023/06/11 08:41:14;;;;;;;8.25;6.70;;;30.20;38.80;;;;;;5037886;28;20052;-63
2023/06/11 08:43:40;;;;;;;10.93;7.80;;;30.70;38.00;;;;;;5047339;28;20108;-63
2023/06/11 08:46:09;;;;;;;8.20;7.20;;;30.50;37.50;;;;;;5039287;28;20049;-61
2023/06/11 08:48:39;;;;;;;7.90;7.10;;;30.80;37.30;;;;;;5052320;28;20072;-64
2023/06/11 08:51:12;;;;;;;9.73;7.32;;;31.20;36.90;;;;;;5043003;28;20045;-63
2023/06/11 08:53:39;;;;;;;7.43;6.78;;;31.50;35.60;;;;;;5039301;28;20098;-65
2023/06/11 08:56:06;;;;;;;8.63;7.18;;;31.70;36.00;;;;;;5049901;28;20080;-64
2023/06/11 08:58:34;;;;;;;8.63;6.97;;;31.90;35.40;;;;;;5043879;28;20037;-65
2023/06/11 09:01:20;;;;;;;7.93;7.15;;;32.00;34.80;;;;;;5047622;28;20037;-62
2023/06/11 09:03:46;;;;;;;7.88;7.10;;;32.20;34.00;;;;;;5031146;28;20103;-64
2023/06/11 09:06:12;;;;;;;7.45;6.75;;;32.70;34.70;;;;;;5038391;28;20652;-65
2023/06/11 09:08:37;;;;;;;8.35;7.50;;;32.90;35.40;;;;;;5047623;28;20045;-63
2023/06/11 09:11:04;;;;;;;8.90;6.72;;;33.10;33.70;;;;;;5045133;28;20087;-65
2023/06/11 09:13:30;;;;;;;6.97;6.47;;;33.00;33.20;;;;;;5036917;28;20029;-63
2023/06/11 09:15:55;;;;;;;9.85;7.10;;;33.20;32.90;;;;;;5040852;28;20060;-64
2023/06/11 09:18:23;;;;;;;7.60;6.90;;;33.40;32.60;;;;;;5033955;28;20130;-63
2023/06/11 09:20:50;;;;;;;8.73;7.10;;;33.20;32.30;;;;;;5035712;28;20132;-62
2023/06/11 09:23:26;;;;;;;8.43;7.05;;;33.30;32.00;;;;;;5034253;28;20140;-62
2023/06/11 09:25:52;;;;;;;7.90;7.20;;;33.50;31.50;;;;;;5044213;28;20124;-63
2023/06/11 09:28:17;;;;;;;7.63;6.97;;;33.80;31.60;;;;;;5049827;28;20148;-64
2023/06/11 09:30:53;;;;;;;7.63;6.53;;;34.10;31.30;;;;;;5038082;28;20049;-65
2023/06/11 09:33:19;;;;;;;7.15;6.55;;;34.30;30.40;;;;;;5024197;28;20053;-65
2023/06/11 09:35:45;;;;;;;7.22;6.53;;;34.70;30.10;;;;;;5034268;28;20472;-63
2023/06/11 09:38:18;;;;;;;8.45;5.88;;;34.80;29.80;;;;;;5033081;28;20034;-65
2023/06/11 09:40:56;;;;;;;6.97;6.30;;;35.40;29.70;;;;;;5042742;28;20041;-64
2023/06/11 09:43:23;;;;;;;7.25;6.57;;;35.90;29.10;;;;;;5035732;28;20350;-64
2023/06/11 09:45:54;;;;;;;6.78;6.07;;;36.40;28.40;;;;;;5038394;28;20803;-65
2023/06/11 09:48:22;;;;;;;6.90;6.30;;;36.30;28.70;;;;;;5035377;28;20057;-63
2023/06/11 09:50:49;;;;;;;7.10;6.40;;;36.10;28.10;;;;;;5042321;28;20394;-64
2023/06/11 09:53:15;;;;;;;7.65;6.78;;;35.90;28.00;;;;;;5045507;28;20106;-63
2023/06/11 09:55:41;;;;;;;7.30;6.65;;;36.10;27.70;;;;;;5040405;28;20056;-63
2023/06/11 09:58:08;;;;;;;7.13;6.43;;;35.80;28.50;;;;;;5046670;28;20063;-61
2023/06/11 10:00:35;;;;;;;6.80;6.10;;;35.50;27.70;;;;;;5039817;28;20052;-62
2023/06/11 10:03:01;;;;;;;8.20;6.65;;;35.40;28.10;;;;;;5039169;28;20675;-62
2023/06/11 10:05:27;;;;;;;7.95;6.68;;;35.80;27.90;;;;;;5038148;28;20073;-63
2023/06/11 10:08:06;;;;;;;7.40;6.70;;;36.30;27.50;;;;;;5027508;28;20057;-62
2023/06/11 10:10:39;;;;;;;6.80;6.20;;;36.30;26.60;;;;;;5034463;28;20440;-64
2023/06/11 10:13:05;;;;;;;9.65;6.88;;;36.40;26.90;;;;;;5043912;28;20069;-63
2023/06/11 10:15:32;;;;;;;7.30;6.60;;;36.50;27.00;;;;;;5032143;28;20465;-65
2023/06/11 10:17:58;;;;;;;7.18;6.57;;;36.90;26.70;;;;;;5033798;28;20044;-66
2023/06/11 10:20:29;;;;;;;8.30;6.10;;;37.00;26.50;;;;;;5033522;28;20451;-63
2023/06/11 10:23:11;;;;;;;6.75;6.15;;;37.10;26.80;;;;;;5032060;28;20029;-64
2023/06/11 10:25:39;;;;;;;8.68;5.60;;;37.60;24.90;;;;;;5034022;28;20116;-62
2023/06/11 10:28:07;;;;;;;6.95;5.75;;;38.10;25.50;;;;;;5040811;28;20179;-62
2023/06/11 10:30:33;;;;;;;6.40;5.80;;;38.30;25.20;;;;;;5046271;28;20634;-62
2023/06/11 10:32:59;;;;;;;7.20;6.10;;;38.50;24.80;;;;;;5044482;28;20041;-63
2023/06/11 10:35:32;;;;;;;6.30;5.70;;;38.60;24.60;;;;;;5040702;28;20044;-64
2023/06/11 10:38:06;;;;;;;5.93;5.43;;;38.70;24.50;;;;;;5027574;28;20097;-68
2023/06/11 10:40:33;;;;;;;7.03;6.32;;;38.50;24.00;;;;;;5026389;28;20084;-64
2023/06/11 10:42:58;;;;;;;6.35;5.65;;;38.10;24.50;;;;;;5035968;28;20477;-62
2023/06/11 10:45:34;;;;;;;5.63;5.20;;;38.50;24.60;;;;;;5034567;28;20045;-64
2023/06/11 10:48:00;;;;;;;5.97;5.38;;;38.30;23.80;;;;;;5030014;28;20057;-63
2023/06/11 10:50:30;;;;;;;6.18;5.40;;;38.30;23.80;;;;;;5034967;28;20056;-63
2023/06/11 10:53:06;;;;;;;5.40;4.90;;;38.30;23.60;;;;;;5040262;28;20396;-64
2023/06/11 10:55:32;;;;;;;6.10;5.10;;;37.50;23.20;;;;;;5031423;28;20560;-65
2023/06/11 10:57:59;;;;;;;6.20;5.63;;;36.60;24.20;;;;;;5031894;28;20127;-63
2023/06/11 11:00:32;;;;;;;7.03;5.40;;;36.00;24.70;;;;;;5036415;28;20069;-62
2023/06/11 11:03:03;;;;;;;8.13;5.32;;;35.20;25.50;;;;;;5040210;28;20048;-63
2023/06/11 11:05:28;;;;;;;6.57;5.20;;;34.50;26.40;;;;;;5028956;28;20045;-66
2023/06/11 11:07:55;;;;;;;6.63;5.28;;;33.90;27.20;;;;;;5046119;28;20342;-65
2023/06/11 11:10:27;;;;;;;6.53;5.90;;;33.50;26.40;;;;;;5045685;28;20122;-64
2023/06/11 11:12:53;;;;;;;7.43;5.32;;;32.60;26.40;;;;;;5045105;28;20467;-65
2023/06/11 11:15:20;;;;;;;7.95;5.85;;;32.40;27.70;;;;;;5044775;28;20063;-64
2023/06/11 11:17:46;;;;;;;9.82;5.75;;;32.10;27.60;;;;;;5047771;28;20086;-63
2023/06/11 11:20:19;;;;;;;7.80;5.45;;;32.00;27.80;;;;;;5049409;28;20140;-64
2023/06/11 11:22:51;;;;;;;6.57;5.88;;;32.00;28.00;;;;;;5042611;28;20112;-64
2023/06/11 11:25:19;;;;;;;7.90;6.07;;;32.00;28.20;;;;;;5048360;28;20746;-61
2023/06/11 11:27:45;;;;;;;6.22;5.55;;;31.80;28.00;;;;;;5047757;28;20034;-63
2023/06/11 11:30:11;;;;;;;6.45;5.85;;;31.80;27.90;;;;;;5022957;28;20614;-62
2023/06/11 11:32:36;;;;;;;7.53;5.65;;;31.70;28.20;;;;;;5038916;28;20131;-64
2023/06/11 11:35:04;;;;;;;7.07;6.32;;;31.60;28.90;;;;;;5035252;28;20038;-62
2023/06/11 11:37:30;;;;;;;6.78;6.18;;;31.60;28.40;;;;;;5032889;28;20545;-63
2023/06/11 11:40:01;;;;;;;7.82;6.35;;;31.60;28.50;;;;;;5037335;28;20040;-64
2023/06/11 11:42:26;;;;;;;6.97;6.07;;;31.60;28.70;;;;;;5044458;28;20049;-62
2023/06/11 11:44:55;;;;;;;6.13;5.50;;;31.50;28.20;;;;;;5052666;28;20036;-63
2023/06/11 11:47:21;;;;;;;6.45;5.85;;;31.70;28.00;;;;;;5046413;28;20080;-63
2023/06/11 11:49:56;;;;;;;5.80;5.30;;;31.90;27.70;;;;;;5049988;28;20178;-64
2023/06/11 11:52:23;;;;;;;6.13;5.57;;;31.90;27.80;;;;;;5029991;28;20069;-63
2023/06/11 11:54:49;;;;;;;9.43;5.80;;;31.40;27.90;;;;;;5051373;28;20045;-62
2023/06/11 11:57:19;;;;;;;5.78;5.10;;;31.30;27.70;;;;;;5047063;28;20099;-63
2023/06/11 11:59:45;;;;;;;9.52;6.00;;;31.40;27.30;;;;;;5034068;28;20049;-61
2023/06/11 12:02:11;;;;;;;8.90;6.18;;;31.60;27.70;;;;;;5036846;28;20032;-62
2023/06/11 12:04:38;;;;;;;7.88;6.10;;;31.30;27.60;;;;;;5037644;28;21086;-63
2023/06/11 12:07:11;;;;;;;6.47;5.88;;;30.90;27.70;;;;;;5036033;28;20056;-64
2023/06/11 12:09:38;;;;;;;8.13;6.32;;;30.90;27.80;;;;;;5044953;28;20152;-63
2023/06/11 12:12:05;;;;;;;7.15;5.80;;;31.20;27.40;;;;;;5035371;28;20052;-69
2023/06/11 12:14:31;;;;;;;7.00;6.05;;;31.10;27.50;;;;;;5042021;28;20037;-65
2023/06/11 12:16:56;;;;;;;6.55;5.88;;;31.10;27.90;;;;;;5047211;28;20094;-62
2023/06/11 12:19:22;;;;;;;6.30;5.70;;;31.20;27.80;;;;;;5042838;28;20041;-63
2023/06/11 12:21:48;;;;;;;6.40;5.80;;;31.40;27.60;;;;;;5034473;28;20033;-65
2023/06/11 12:24:17;;;;;;;8.68;5.95;;;32.10;27.10;;;;;;5036782;28;20067;-65
2023/06/11 12:26:47;;;;;;;7.78;5.82;;;33.20;26.80;;;;;;5046143;28;20116;-62
2023/06/11 12:29:12;;;;;;;7.78;5.95;;;34.70;24.80;;;;;;5039055;28;20721;-64
2023/06/11 12:31:39;;;;;;;6.70;6.00;;;36.20;23.90;;;;;;5039198;28;20056;-65
2023/06/11 12:34:05;;;;;;;8.10;6.18;;;37.00;22.50;;;;;;5043945;28;20112;-65
2023/06/11 12:36:32;;;;;;;6.18;5.57;;;36.80;22.10;;;;;;5046590;28;20041;-66